sensor_id;sensor_type;location;lat;lon;timestamp;temperature;humidity
59855;DHT22;45732;52.850;6.896;2022-10-30T00:00:04;16.10;99.90
59855;DHT22;45732;52.850;6.896;2022-10-30T00:02:30;16.10;99.90
59855;DHT22;45732;52.850;6.896;2022-10-30T00:04:56;16.00;99.90
59855;DHT22;45732;52.850;6.896;2022-10-30T00:07:21;16.10;99.90
59855;DHT22;45732;52.850;6.896;2022-10-30T00:09:47;16.00;99.90
59855;DHT22;45732;52.850;6.896;2022-10-30T00:12:13;16.00;99.90
59855;DHT22;45732;52.850;6.896;2022-10-30T00:14:38;16.10;99.90
59855;DHT22;45732;52.850;6.896;2022-10-30T00:17:04;16.00;99.90
59855;DHT22;45732;52.850;6.896;2022-10-30T00:19:30;16.10;99.90
59855;DHT22;45732;52.850;6.896;2022-10-30T00:21:55;16.10;99.90
59855;DHT22;45732;52.850;6.896;2022-10-30T00:24:22;16.10;99.90
59855;DHT22;45732;52.850;6.896;2022-10-30T00:26:48;16.10;99.90
59855;DHT22;45732;52.850;6.896;2022-10-30T00:29:14;16.10;99.90
59855;DHT22;45732;52.850;6.896;2022-10-30T00:31:40;16.10;99.90
59855;DHT22;45732;52.850;6.896;2022-10-30T00:34:06;16.10;99.90
59855;DHT22;45732;52.850;6.896;2022-10-30T00:36:32;16.10;99.90
59855;DHT22;45732;52.850;6.896;2022-10-30T00:38:57;16.10;99.90
59855;DHT22;45732;52.850;6.896;2022-10-30T00:41:24;16.10;99.90
59855;DHT22;45732;52.850;6.896;2022-10-30T00:43:50;16.00;99.90
59855;DHT22;45732;52.850;6.896;2022-10-30T00:46:35;16.00;99.90
59855;DHT22;45732;52.850;6.896;2022-10-30T00:49:11;16.00;99.90
59855;DHT22;45732;52.850;6.896;2022-10-30T00:51:38;15.90;99.90
59855;DHT22;45732;52.850;6.896;2022-10-30T00:54:06;15.90;99.90
59855;DHT22;45732;52.850;6.896;2022-10-30T00:56:33;15.90;99.90
59855;DHT22;45732;52.850;6.896;2022-10-30T00:59:03;15.90;99.90
59855;DHT22;45732;52.850;6.896;2022-10-30T01:01:37;15.80;99.90
59855;DHT22;45732;52.850;6.896;2022-10-30T01:04:04;15.80;99.90
59855;DHT22;45732;52.850;6.896;2022-10-30T01:06:33;15.80;99.90
59855;DHT22;45732;52.850;6.896;2022-10-30T01:09:01;15.70;99.90
59855;DHT22;45732;52.850;6.896;2022-10-30T01:11:27;15.70;99.90
59855;DHT22;45732;52.850;6.896;2022-10-30T01:13:56;15.70;99.90
59855;DHT22;45732;52.850;6.896;2022-10-30T01:34:58;15.60;99.90
59855;DHT22;45732;52.850;6.896;2022-10-30T01:37:47;15.60;99.90
59855;DHT22;45732;52.850;6.896;2022-10-30T01:40:16;15.60;99.90
59855;DHT22;45732;52.850;6.896;2022-10-30T02:01:36;15.50;99.90
59855;DHT22;45732;52.850;6.896;2022-10-30T02:04:06;15.50;99.90
59855;DHT22;45732;52.850;6.896;2022-10-30T02:06:33;15.50;99.90
59855;DHT22;45732;52.850;6.896;2022-10-30T02:08:59;15.50;99.90
59855;DHT22;45732;52.850;6.896;2022-10-30T02:11:25;15.50;99.90
59855;DHT22;45732;52.850;6.896;2022-10-30T02:13:54;15.40;99.90
59855;DHT22;45732;52.850;6.896;2022-10-30T02:16:21;15.40;99.90
59855;DHT22;45732;52.850;6.896;2022-10-30T02:18:47;15.40;99.90
59855;DHT22;45732;52.850;6.896;2022-10-30T02:21:13;15.30;99.90
59855;DHT22;45732;52.850;6.896;2022-10-30T02:23:39;15.30;99.90
59855;DHT22;45732;52.850;6.896;2022-10-30T02:26:05;15.30;99.90
59855;DHT22;45732;52.850;6.896;2022-10-30T02:28:31;15.30;99.90
59855;DHT22;45732;52.850;6.896;2022-10-30T02:30:57;15.30;99.90
59855;DHT22;45732;52.850;6.896;2022-10-30T02:33:22;15.30;99.90
59855;DHT22;45732;52.850;6.896;2022-10-30T02:35:49;15.30;99.90
59855;DHT22;45732;52.850;6.896;2022-10-30T02:38:15;15.30;99.90
59855;DHT22;45732;52.850;6.896;2022-10-30T02:40:40;15.30;99.90
59855;DHT22;45732;52.850;6.896;2022-10-30T02:43:06;15.30;99.90
59855;DHT22;45732;52.850;6.896;2022-10-30T02:45:32;15.30;99.90
59855;DHT22;45732;52.850;6.896;2022-10-30T02:47:58;15.20;99.90
59855;DHT22;45732;52.850;6.896;2022-10-30T02:50:25;15.20;99.90
59855;DHT22;45732;52.850;6.896;2022-10-30T02:52:51;15.20;99.90
59855;DHT22;45732;52.850;6.896;2022-10-30T02:55:16;15.20;99.90
59855;DHT22;45732;52.850;6.896;2022-10-30T02:57:42;15.20;99.90
59855;DHT22;45732;52.850;6.896;2022-10-30T03:00:09;15.20;99.90
59855;DHT22;45732;52.850;6.896;2022-10-30T03:02:35;15.20;99.90
59855;DHT22;45732;52.850;6.896;2022-10-30T03:05:00;15.20;99.90
59855;DHT22;45732;52.850;6.896;2022-10-30T03:07:26;15.20;99.90
59855;DHT22;45732;52.850;6.896;2022-10-30T03:09:52;15.20;99.90
59855;DHT22;45732;52.850;6.896;2022-10-30T03:12:19;15.20;99.90
59855;DHT22;45732;52.850;6.896;2022-10-30T03:14:44;15.20;99.90
59855;DHT22;45732;52.850;6.896;2022-10-30T03:17:10;15.20;99.90
59855;DHT22;45732;52.850;6.896;2022-10-30T03:19:36;15.20;99.90
59855;DHT22;45732;52.850;6.896;2022-10-30T03:22:02;15.10;99.90
59855;DHT22;45732;52.850;6.896;2022-10-30T03:24:27;15.10;99.90
59855;DHT22;45732;52.850;6.896;2022-10-30T03:26:53;15.10;99.90
59855;DHT22;45732;52.850;6.896;2022-10-30T03:29:19;15.00;99.90
59855;DHT22;45732;52.850;6.896;2022-10-30T03:31:44;15.00;99.90
59855;DHT22;45732;52.850;6.896;2022-10-30T03:34:10;15.00;99.90
59855;DHT22;45732;52.850;6.896;2022-10-30T03:36:36;15.00;99.90
59855;DHT22;45732;52.850;6.896;2022-10-30T03:39:02;15.00;99.90
59855;DHT22;45732;52.850;6.896;2022-10-30T03:41:27;14.90;99.90
59855;DHT22;45732;52.850;6.896;2022-10-30T03:43:53;14.90;99.90
59855;DHT22;45732;52.850;6.896;2022-10-30T03:46:19;14.90;99.90
59855;DHT22;45732;52.850;6.896;2022-10-30T03:48:47;14.90;99.90
59855;DHT22;45732;52.850;6.896;2022-10-30T03:51:13;14.90;99.90
59855;DHT22;45732;52.850;6.896;2022-10-30T03:53:39;14.90;99.90
59855;DHT22;45732;52.850;6.896;2022-10-30T03:56:05;14.90;99.90
59855;DHT22;45732;52.850;6.896;2022-10-30T03:58:31;14.80;99.90
59855;DHT22;45732;52.850;6.896;2022-10-30T04:01:01;14.80;99.90
59855;DHT22;45732;52.850;6.896;2022-10-30T04:03:26;14.80;99.90
59855;DHT22;45732;52.850;6.896;2022-10-30T04:05:52;14.80;99.90
59855;DHT22;45732;52.850;6.896;2022-10-30T04:08:18;14.80;99.90
59855;DHT22;45732;52.850;6.896;2022-10-30T04:10:45;14.80;99.90
59855;DHT22;45732;52.850;6.896;2022-10-30T04:13:13;14.80;99.90
59855;DHT22;45732;52.850;6.896;2022-10-30T04:15:39;14.80;99.90
59855;DHT22;45732;52.850;6.896;2022-10-30T04:18:05;14.80;99.90
59855;DHT22;45732;52.850;6.896;2022-10-30T04:20:31;14.80;99.90
59855;DHT22;45732;52.850;6.896;2022-10-30T04:23:03;14.80;99.90
59855;DHT22;45732;52.850;6.896;2022-10-30T04:25:29;14.80;99.90
59855;DHT22;45732;52.850;6.896;2022-10-30T04:27:55;14.80;99.90
59855;DHT22;45732;52.850;6.896;2022-10-30T04:30:22;14.80;99.90
59855;DHT22;45732;52.850;6.896;2022-10-30T04:32:56;14.70;99.90
59855;DHT22;45732;52.850;6.896;2022-10-30T04:35:24;14.80;99.90
59855;DHT22;45732;52.850;6.896;2022-10-30T04:37:57;14.70;99.90
59855;DHT22;45732;52.850;6.896;2022-10-30T04:40:25;14.70;99.90
59855;DHT22;45732;52.850;6.896;2022-10-30T04:42:51;14.70;99.90
59855;DHT22;45732;52.850;6.896;2022-10-30T04:45:17;14.70;99.90
59855;DHT22;45732;52.850;6.896;2022-10-30T04:47:43;14.70;99.90
59855;DHT22;45732;52.850;6.896;2022-10-30T04:50:09;14.70;99.90
59855;DHT22;45732;52.850;6.896;2022-10-30T04:52:36;14.70;99.90
59855;DHT22;45732;52.850;6.896;2022-10-30T04:55:02;14.70;99.90
59855;DHT22;45732;52.850;6.896;2022-10-30T04:57:28;14.60;99.90
59855;DHT22;45732;52.850;6.896;2022-10-30T04:59:56;14.60;99.90
59855;DHT22;45732;52.850;6.896;2022-10-30T05:02:21;14.60;99.90
59855;DHT22;45732;52.850;6.896;2022-10-30T05:04:47;14.50;99.90
59855;DHT22;45732;52.850;6.896;2022-10-30T05:07:13;14.60;99.90
59855;DHT22;45732;52.850;6.896;2022-10-30T05:09:39;14.50;99.90
59855;DHT22;45732;52.850;6.896;2022-10-30T05:12:05;14.50;99.90
59855;DHT22;45732;52.850;6.896;2022-10-30T05:14:31;14.50;99.90
59855;DHT22;45732;52.850;6.896;2022-10-30T05:16:57;14.40;99.90
59855;DHT22;45732;52.850;6.896;2022-10-30T05:19:24;14.40;99.90
59855;DHT22;45732;52.850;6.896;2022-10-30T05:21:50;14.40;99.90
59855;DHT22;45732;52.850;6.896;2022-10-30T05:24:16;14.30;99.90
59855;DHT22;45732;52.850;6.896;2022-10-30T05:26:42;14.30;99.90
59855;DHT22;45732;52.850;6.896;2022-10-30T05:29:07;14.30;99.90
59855;DHT22;45732;52.850;6.896;2022-10-30T05:31:33;14.30;99.90
59855;DHT22;45732;52.850;6.896;2022-10-30T05:33:59;14.20;99.90
59855;DHT22;45732;52.850;6.896;2022-10-30T05:36:25;14.20;99.90
59855;DHT22;45732;52.850;6.896;2022-10-30T05:38:50;14.20;99.90
59855;DHT22;45732;52.850;6.896;2022-10-30T05:41:16;14.20;99.90
59855;DHT22;45732;52.850;6.896;2022-10-30T05:43:42;14.20;99.90
59855;DHT22;45732;52.850;6.896;2022-10-30T05:46:08;14.20;99.90
59855;DHT22;45732;52.850;6.896;2022-10-30T05:48:33;14.20;99.90
59855;DHT22;45732;52.850;6.896;2022-10-30T05:50:59;14.20;99.90
59855;DHT22;45732;52.850;6.896;2022-10-30T05:53:25;14.20;99.90
59855;DHT22;45732;52.850;6.896;2022-10-30T05:55:50;14.20;99.90
59855;DHT22;45732;52.850;6.896;2022-10-30T05:58:16;14.20;99.90
59855;DHT22;45732;52.850;6.896;2022-10-30T06:00:42;14.20;99.90
59855;DHT22;45732;52.850;6.896;2022-10-30T06:03:12;14.20;99.90
59855;DHT22;45732;52.850;6.896;2022-10-30T06:05:38;14.20;99.90
59855;DHT22;45732;52.850;6.896;2022-10-30T06:08:05;14.20;99.90
59855;DHT22;45732;52.850;6.896;2022-10-30T06:10:31;14.20;99.90
59855;DHT22;45732;52.850;6.896;2022-10-30T06:12:59;14.20;99.90
59855;DHT22;45732;52.850;6.896;2022-10-30T06:15:25;14.20;99.90
59855;DHT22;45732;52.850;6.896;2022-10-30T06:17:51;14.10;99.90
59855;DHT22;45732;52.850;6.896;2022-10-30T06:20:19;14.20;99.90
59855;DHT22;45732;52.850;6.896;2022-10-30T06:23:03;14.20;99.90
59855;DHT22;45732;52.850;6.896;2022-10-30T06:25:31;14.20;99.90
59855;DHT22;45732;52.850;6.896;2022-10-30T06:27:57;14.20;99.90
59855;DHT22;45732;52.850;6.896;2022-10-30T06:30:24;14.20;99.90
59855;DHT22;45732;52.850;6.896;2022-10-30T06:33:04;14.20;99.90
59855;DHT22;45732;52.850;6.896;2022-10-30T06:35:30;14.20;99.90
59855;DHT22;45732;52.850;6.896;2022-10-30T06:37:56;14.10;99.90
59855;DHT22;45732;52.850;6.896;2022-10-30T06:40:25;14.20;99.90
59855;DHT22;45732;52.850;6.896;2022-10-30T06:42:52;14.10;99.90
59855;DHT22;45732;52.850;6.896;2022-10-30T06:45:19;14.20;99.90
59855;DHT22;45732;52.850;6.896;2022-10-30T06:47:46;14.20;99.90
59855;DHT22;45732;52.850;6.896;2022-10-30T06:50:14;14.20;99.90
59855;DHT22;45732;52.850;6.896;2022-10-30T06:52:40;14.20;99.90
59855;DHT22;45732;52.850;6.896;2022-10-30T06:55:06;14.20;99.90
59855;DHT22;45732;52.850;6.896;2022-10-30T06:57:32;14.10;99.90
59855;DHT22;45732;52.850;6.896;2022-10-30T06:59:58;14.20;99.90
59855;DHT22;45732;52.850;6.896;2022-10-30T07:02:24;14.20;99.90
59855;DHT22;45732;52.850;6.896;2022-10-30T07:04:49;14.20;99.90
59855;DHT22;45732;52.850;6.896;2022-10-30T07:07:15;14.20;99.90
59855;DHT22;45732;52.850;6.896;2022-10-30T07:09:41;14.20;99.90
59855;DHT22;45732;52.850;6.896;2022-10-30T07:12:07;14.20;99.90
59855;DHT22;45732;52.850;6.896;2022-10-30T07:14:34;14.20;99.90
59855;DHT22;45732;52.850;6.896;2022-10-30T07:17:00;14.20;99.90
59855;DHT22;45732;52.850;6.896;2022-10-30T07:19:26;14.30;99.90
59855;DHT22;45732;52.850;6.896;2022-10-30T07:21:51;14.30;99.90
59855;DHT22;45732;52.850;6.896;2022-10-30T07:24:17;14.30;99.90
59855;DHT22;45732;52.850;6.896;2022-10-30T07:26:43;14.30;99.90
59855;DHT22;45732;52.850;6.896;2022-10-30T07:29:09;14.30;99.90
59855;DHT22;45732;52.850;6.896;2022-10-30T07:31:34;14.40;99.90
59855;DHT22;45732;52.850;6.896;2022-10-30T07:34:00;14.40;99.90
59855;DHT22;45732;52.850;6.896;2022-10-30T07:36:26;14.40;99.90
59855;DHT22;45732;52.850;6.896;2022-10-30T07:38:51;14.50;99.90
59855;DHT22;45732;52.850;6.896;2022-10-30T07:41:18;14.50;99.90
59855;DHT22;45732;52.850;6.896;2022-10-30T07:43:45;14.50;99.90
59855;DHT22;45732;52.850;6.896;2022-10-30T07:46:11;14.50;99.90
59855;DHT22;45732;52.850;6.896;2022-10-30T07:48:37;14.50;99.90
59855;DHT22;45732;52.850;6.896;2022-10-30T07:51:03;14.50;99.90
59855;DHT22;45732;52.850;6.896;2022-10-30T07:53:29;14.60;99.90
59855;DHT22;45732;52.850;6.896;2022-10-30T07:55:55;14.60;99.90
59855;DHT22;45732;52.850;6.896;2022-10-30T07:58:21;14.60;99.90
59855;DHT22;45732;52.850;6.896;2022-10-30T08:00:47;14.60;99.90
59855;DHT22;45732;52.850;6.896;2022-10-30T08:03:14;14.70;99.90
59855;DHT22;45732;52.850;6.896;2022-10-30T08:05:39;14.70;99.90
59855;DHT22;45732;52.850;6.896;2022-10-30T08:08:06;14.70;99.90
59855;DHT22;45732;52.850;6.896;2022-10-30T08:10:31;14.70;99.90
59855;DHT22;45732;52.850;6.896;2022-10-30T08:12:57;14.80;99.90
59855;DHT22;45732;52.850;6.896;2022-10-30T08:15:23;14.80;99.90
59855;DHT22;45732;52.850;6.896;2022-10-30T08:17:50;14.90;99.90
59855;DHT22;45732;52.850;6.896;2022-10-30T08:20:18;14.90;99.90
59855;DHT22;45732;52.850;6.896;2022-10-30T08:22:47;15.00;99.90
59855;DHT22;45732;52.850;6.896;2022-10-30T08:25:13;15.00;99.90
59855;DHT22;45732;52.850;6.896;2022-10-30T08:28:06;15.00;99.90
59855;DHT22;45732;52.850;6.896;2022-10-30T08:30:33;15.10;99.90
59855;DHT22;45732;52.850;6.896;2022-10-30T08:33:02;15.10;99.90
59855;DHT22;45732;52.850;6.896;2022-10-30T08:35:28;15.10;99.90
59855;DHT22;45732;52.850;6.896;2022-10-30T08:37:55;15.20;99.90
59855;DHT22;45732;52.850;6.896;2022-10-30T08:40:21;15.20;99.90
59855;DHT22;45732;52.850;6.896;2022-10-30T08:42:54;15.30;99.90
59855;DHT22;45732;52.850;6.896;2022-10-30T08:45:20;15.30;99.90
59855;DHT22;45732;52.850;6.896;2022-10-30T08:47:47;15.40;99.90
59855;DHT22;45732;52.850;6.896;2022-10-30T08:50:20;15.40;99.90
59855;DHT22;45732;52.850;6.896;2022-10-30T08:52:45;15.40;99.90
59855;DHT22;45732;52.850;6.896;2022-10-30T08:55:11;15.50;99.90
59855;DHT22;45732;52.850;6.896;2022-10-30T08:57:37;15.50;99.90
59855;DHT22;45732;52.850;6.896;2022-10-30T09:00:05;15.50;99.90
59855;DHT22;45732;52.850;6.896;2022-10-30T09:02:32;15.60;99.90
59855;DHT22;45732;52.850;6.896;2022-10-30T09:04:58;15.60;99.90
59855;DHT22;45732;52.850;6.896;2022-10-30T09:07:24;15.60;99.90
59855;DHT22;45732;52.850;6.896;2022-10-30T09:09:49;15.60;99.90
59855;DHT22;45732;52.850;6.896;2022-10-30T09:12:15;15.60;99.90
59855;DHT22;45732;52.850;6.896;2022-10-30T09:14:41;15.70;99.90
59855;DHT22;45732;52.850;6.896;2022-10-30T09:17:07;15.70;99.90
59855;DHT22;45732;52.850;6.896;2022-10-30T09:19:33;15.70;99.90
59855;DHT22;45732;52.850;6.896;2022-10-30T09:21:58;15.70;99.90
59855;DHT22;45732;52.850;6.896;2022-10-30T09:24:24;15.80;99.90
59855;DHT22;45732;52.850;6.896;2022-10-30T09:26:49;15.80;99.90
59855;DHT22;45732;52.850;6.896;2022-10-30T09:29:15;15.90;99.90
59855;DHT22;45732;52.850;6.896;2022-10-30T09:31:41;15.90;99.90
59855;DHT22;45732;52.850;6.896;2022-10-30T09:34:06;15.90;99.90
59855;DHT22;45732;52.850;6.896;2022-10-30T09:36:32;16.00;99.90
59855;DHT22;45732;52.850;6.896;2022-10-30T09:38:58;16.00;99.90
59855;DHT22;45732;52.850;6.896;2022-10-30T09:50:34;16.20;99.90
59855;DHT22;45732;52.850;6.896;2022-10-30T09:53:24;16.30;99.90
59855;DHT22;45732;52.850;6.896;2022-10-30T09:56:05;16.40;99.90
59855;DHT22;45732;52.850;6.896;2022-10-30T10:01:30;16.40;99.90
59855;DHT22;45732;52.850;6.896;2022-10-30T10:06:47;16.60;99.90
59855;DHT22;45732;52.850;6.896;2022-10-30T10:09:21;16.60;99.90
59855;DHT22;45732;52.850;6.896;2022-10-30T10:11:59;16.60;99.90
59855;DHT22;45732;52.850;6.896;2022-10-30T10:14:29;16.80;99.90
59855;DHT22;45732;52.850;6.896;2022-10-30T10:16:59;16.80;99.90
59855;DHT22;45732;52.850;6.896;2022-10-30T10:19:51;16.80;99.90
59855;DHT22;45732;52.850;6.896;2022-10-30T10:24:59;16.80;99.90
59855;DHT22;45732;52.850;6.896;2022-10-30T10:30:19;16.90;99.90
59855;DHT22;45732;52.850;6.896;2022-10-30T10:52:01;17.10;99.90
59855;DHT22;45732;52.850;6.896;2022-10-30T10:54:44;17.10;99.90
59855;DHT22;45732;52.850;6.896;2022-10-30T10:57:32;17.20;99.90
59855;DHT22;45732;52.850;6.896;2022-10-30T11:00:09;17.20;99.90
59855;DHT22;45732;52.850;6.896;2022-10-30T11:08:28;17.20;99.90
59855;DHT22;45732;52.850;6.896;2022-10-30T11:11:02;17.20;99.90
59855;DHT22;45732;52.850;6.896;2022-10-30T11:13:42;17.20;99.90
59855;DHT22;45732;52.850;6.896;2022-10-30T11:18:44;17.20;99.90
59855;DHT22;45732;52.850;6.896;2022-10-30T11:21:18;17.20;99.90
59855;DHT22;45732;52.850;6.896;2022-10-30T11:23:47;17.30;99.90
59855;DHT22;45732;52.850;6.896;2022-10-30T11:28:49;17.30;99.90
59855;DHT22;45732;52.850;6.896;2022-10-30T11:31:18;17.40;99.90
59855;DHT22;45732;52.850;6.896;2022-10-30T11:33:45;17.40;99.90
59855;DHT22;45732;52.850;6.896;2022-10-30T11:36:14;17.40;99.90
59855;DHT22;45732;52.850;6.896;2022-10-30T11:38:40;17.50;99.90
59855;DHT22;45732;52.850;6.896;2022-10-30T11:41:06;17.60;99.90
59855;DHT22;45732;52.850;6.896;2022-10-30T11:43:36;17.60;99.90
59855;DHT22;45732;52.850;6.896;2022-10-30T11:46:04;17.70;99.90
59855;DHT22;45732;52.850;6.896;2022-10-30T11:48:36;17.70;99.90
59855;DHT22;45732;52.850;6.896;2022-10-30T11:51:03;17.80;99.90
59855;DHT22;45732;52.850;6.896;2022-10-30T11:53:36;17.80;99.90
59855;DHT22;45732;52.850;6.896;2022-10-30T11:56:13;17.80;99.90
59855;DHT22;45732;52.850;6.896;2022-10-30T11:58:44;17.80;99.90
59855;DHT22;45732;52.850;6.896;2022-10-30T12:01:22;17.80;99.90
59855;DHT22;45732;52.850;6.896;2022-10-30T12:03:48;17.80;99.90
59855;DHT22;45732;52.850;6.896;2022-10-30T12:09:11;17.90;99.90
59855;DHT22;45732;52.850;6.896;2022-10-30T12:11:38;17.90;99.90
59855;DHT22;45732;52.850;6.896;2022-10-30T12:14:23;17.90;99.90
59855;DHT22;45732;52.850;6.896;2022-10-30T12:16:53;18.00;99.90
59855;DHT22;45732;52.850;6.896;2022-10-30T12:19:22;18.00;99.90
59855;DHT22;45732;52.850;6.896;2022-10-30T12:21:50;18.00;99.90
59855;DHT22;45732;52.850;6.896;2022-10-30T12:24:30;18.10;99.90
59855;DHT22;45732;52.850;6.896;2022-10-30T12:27:00;18.10;99.90
59855;DHT22;45732;52.850;6.896;2022-10-30T12:30:13;18.20;99.90
59855;DHT22;45732;52.850;6.896;2022-10-30T12:32:42;18.20;99.90
59855;DHT22;45732;52.850;6.896;2022-10-30T12:38:28;18.20;99.90
59855;DHT22;45732;52.850;6.896;2022-10-30T12:41:17;18.20;99.90
59855;DHT22;45732;52.850;6.896;2022-10-30T12:43:51;18.30;99.90
59855;DHT22;45732;52.850;6.896;2022-10-30T12:46:41;18.30;99.90
59855;DHT22;45732;52.850;6.896;2022-10-30T12:49:28;18.30;99.90
59855;DHT22;45732;52.850;6.896;2022-10-30T12:52:14;18.30;99.90
59855;DHT22;45732;52.850;6.896;2022-10-30T12:57:45;18.30;99.90
59855;DHT22;45732;52.850;6.896;2022-10-30T13:00:16;18.30;99.90
59855;DHT22;45732;52.850;6.896;2022-10-30T13:03:03;18.40;99.90
59855;DHT22;45732;52.850;6.896;2022-10-30T13:05:50;18.40;99.90
59855;DHT22;45732;52.850;6.896;2022-10-30T13:08:37;18.40;99.90
59855;DHT22;45732;52.850;6.896;2022-10-30T13:11:18;18.50;99.90
59855;DHT22;45732;52.850;6.896;2022-10-30T13:13:48;18.50;99.90
59855;DHT22;45732;52.850;6.896;2022-10-30T13:16:28;18.50;99.90
59855;DHT22;45732;52.850;6.896;2022-10-30T13:18:58;18.50;99.90
59855;DHT22;45732;52.850;6.896;2022-10-30T13:26:55;18.60;99.90
59855;DHT22;45732;52.850;6.896;2022-10-30T13:53:43;18.70;99.90
59855;DHT22;45732;52.850;6.896;2022-10-30T13:56:13;18.70;99.90
59855;DHT22;45732;52.850;6.896;2022-10-30T13:58:48;18.60;99.90
59855;DHT22;45732;52.850;6.896;2022-10-30T14:01:35;18.60;99.90
59855;DHT22;45732;52.850;6.896;2022-10-30T14:07:26;18.50;99.90
59855;DHT22;45732;52.850;6.896;2022-10-30T14:13:02;18.50;99.90
59855;DHT22;45732;52.850;6.896;2022-10-30T14:20:40;18.40;99.90
59855;DHT22;45732;52.850;6.896;2022-10-30T14:26:01;18.40;99.90
59855;DHT22;45732;52.850;6.896;2022-10-30T14:28:31;18.30;99.90
59855;DHT22;45732;52.850;6.896;2022-10-30T14:31:06;18.30;99.90
59855;DHT22;45732;52.850;6.896;2022-10-30T14:36:25;18.30;99.90
59855;DHT22;45732;52.850;6.896;2022-10-30T14:39:24;18.30;99.90
59855;DHT22;45732;52.850;6.896;2022-10-30T14:41:59;18.30;99.90
59855;DHT22;45732;52.850;6.896;2022-10-30T14:50:02;18.30;99.90
59855;DHT22;45732;52.850;6.896;2022-10-30T15:09:19;18.20;99.90
59855;DHT22;45732;52.850;6.896;2022-10-30T15:14:58;18.20;99.90
59855;DHT22;45732;52.850;6.896;2022-10-30T15:17:35;18.20;99.90
59855;DHT22;45732;52.850;6.896;2022-10-30T15:20:28;18.20;99.90
59855;DHT22;45732;52.850;6.896;2022-10-30T15:22:55;18.10;99.90
59855;DHT22;45732;52.850;6.896;2022-10-30T15:25:23;18.10;99.90
59855;DHT22;45732;52.850;6.896;2022-10-30T15:27:53;18.00;99.90
59855;DHT22;45732;52.850;6.896;2022-10-30T15:30:23;18.00;99.90
59855;DHT22;45732;52.850;6.896;2022-10-30T15:32:49;18.00;99.90
59855;DHT22;45732;52.850;6.896;2022-10-30T15:38:18;17.90;99.90
59855;DHT22;45732;52.850;6.896;2022-10-30T15:40:44;17.80;99.90
59855;DHT22;45732;52.850;6.896;2022-10-30T15:43:12;17.80;99.90
59855;DHT22;45732;52.850;6.896;2022-10-30T15:45:43;17.80;99.90
59855;DHT22;45732;52.850;6.896;2022-10-30T15:48:26;17.70;99.90
59855;DHT22;45732;52.850;6.896;2022-10-30T15:53:24;17.70;99.90
59855;DHT22;45732;52.850;6.896;2022-10-30T15:55:57;17.60;99.90
59855;DHT22;45732;52.850;6.896;2022-10-30T15:58:23;17.60;99.90
59855;DHT22;45732;52.850;6.896;2022-10-30T16:00:58;17.50;99.90
59855;DHT22;45732;52.850;6.896;2022-10-30T16:03:24;17.50;99.90
59855;DHT22;45732;52.850;6.896;2022-10-30T16:05:51;17.50;99.90
59855;DHT22;45732;52.850;6.896;2022-10-30T16:08:27;17.40;99.90
59855;DHT22;45732;52.850;6.896;2022-10-30T16:10:54;17.40;99.90
59855;DHT22;45732;52.850;6.896;2022-10-30T16:13:28;17.40;99.90
59855;DHT22;45732;52.850;6.896;2022-10-30T16:15:54;17.40;99.90
59855;DHT22;45732;52.850;6.896;2022-10-30T16:18:23;17.40;99.90
59855;DHT22;45732;52.850;6.896;2022-10-30T16:20:56;17.30;99.90
59855;DHT22;45732;52.850;6.896;2022-10-30T16:23:22;17.30;99.90
59855;DHT22;45732;52.850;6.896;2022-10-30T16:25:53;17.20;99.90
59855;DHT22;45732;52.850;6.896;2022-10-30T16:30:48;17.10;99.90
59855;DHT22;45732;52.850;6.896;2022-10-30T16:33:14;17.00;99.90
59855;DHT22;45732;52.850;6.896;2022-10-30T16:35:50;17.00;99.90
59855;DHT22;45732;52.850;6.896;2022-10-30T16:38:18;16.90;99.90
59855;DHT22;45732;52.850;6.896;2022-10-30T16:40:44;16.90;99.90
59855;DHT22;45732;52.850;6.896;2022-10-30T16:43:29;16.90;99.90
59855;DHT22;45732;52.850;6.896;2022-10-30T16:48:42;16.90;99.90
59855;DHT22;45732;52.850;6.896;2022-10-30T16:51:14;16.90;99.90
59855;DHT22;45732;52.850;6.896;2022-10-30T16:53:48;16.80;99.90
59855;DHT22;45732;52.850;6.896;2022-10-30T16:56:35;16.90;99.90
59855;DHT22;45732;52.850;6.896;2022-10-30T16:59:06;16.90;99.90
59855;DHT22;45732;52.850;6.896;2022-10-30T17:01:37;16.90;99.90
59855;DHT22;45732;52.850;6.896;2022-10-30T17:04:03;16.90;99.90
59855;DHT22;45732;52.850;6.896;2022-10-30T17:06:41;16.90;99.90
59855;DHT22;45732;52.850;6.896;2022-10-30T17:11:59;16.90;99.90
59855;DHT22;45732;52.850;6.896;2022-10-30T17:14:26;16.90;99.90
59855;DHT22;45732;52.850;6.896;2022-10-30T17:22:00;17.00;99.90
59855;DHT22;45732;52.850;6.896;2022-10-30T17:24:37;17.00;99.90
59855;DHT22;45732;52.850;6.896;2022-10-30T17:27:05;17.00;99.90
59855;DHT22;45732;52.850;6.896;2022-10-30T17:32:42;16.90;99.90
59855;DHT22;45732;52.850;6.896;2022-10-30T17:35:13;16.90;99.90
59855;DHT22;45732;52.850;6.896;2022-10-30T17:37:39;16.80;99.90
59855;DHT22;45732;52.850;6.896;2022-10-30T17:40:05;16.80;99.90
59855;DHT22;45732;52.850;6.896;2022-10-30T17:42:31;16.80;99.90
59855;DHT22;45732;52.850;6.896;2022-10-30T17:44:57;16.80;99.90
59855;DHT22;45732;52.850;6.896;2022-10-30T17:47:23;16.80;99.90
59855;DHT22;45732;52.850;6.896;2022-10-30T17:49:48;16.80;99.90
59855;DHT22;45732;52.850;6.896;2022-10-30T17:52:17;16.80;99.90
59855;DHT22;45732;52.850;6.896;2022-10-30T17:54:43;16.80;99.90
59855;DHT22;45732;52.850;6.896;2022-10-30T17:57:13;16.80;99.90
59855;DHT22;45732;52.850;6.896;2022-10-30T17:59:39;16.80;99.90
59855;DHT22;45732;52.850;6.896;2022-10-30T18:02:15;16.80;99.90
59855;DHT22;45732;52.850;6.896;2022-10-30T18:04:42;16.80;99.90
59855;DHT22;45732;52.850;6.896;2022-10-30T18:07:11;16.80;99.90
59855;DHT22;45732;52.850;6.896;2022-10-30T18:09:37;16.80;99.90
59855;DHT22;45732;52.850;6.896;2022-10-30T18:12:05;16.70;99.90
59855;DHT22;45732;52.850;6.896;2022-10-30T18:14:31;16.70;99.90
59855;DHT22;45732;52.850;6.896;2022-10-30T18:16:57;16.70;99.90
59855;DHT22;45732;52.850;6.896;2022-10-30T18:19:23;16.70;99.90
59855;DHT22;45732;52.850;6.896;2022-10-30T18:21:50;16.70;99.90
59855;DHT22;45732;52.850;6.896;2022-10-30T18:24:17;16.70;99.90
59855;DHT22;45732;52.850;6.896;2022-10-30T18:26:43;16.70;99.90
59855;DHT22;45732;52.850;6.896;2022-10-30T18:29:09;16.70;99.90
59855;DHT22;45732;52.850;6.896;2022-10-30T18:31:36;16.70;99.90
59855;DHT22;45732;52.850;6.896;2022-10-30T18:34:03;16.60;99.90
59855;DHT22;45732;52.850;6.896;2022-10-30T18:36:28;16.70;99.90
59855;DHT22;45732;52.850;6.896;2022-10-30T18:38:55;16.60;99.90
59855;DHT22;45732;52.850;6.896;2022-10-30T18:41:36;16.60;99.90
59855;DHT22;45732;52.850;6.896;2022-10-30T18:44:02;16.60;99.90
59855;DHT22;45732;52.850;6.896;2022-10-30T18:46:32;16.60;99.90
59855;DHT22;45732;52.850;6.896;2022-10-30T18:48:58;16.60;99.90
59855;DHT22;45732;52.850;6.896;2022-10-30T18:51:26;16.50;99.90